TimeEST,TemperatureF,Dew PointF,Humidity,Sea Level PressureIn,VisibilityMPH,Wind Direction,Wind SpeedMPH,Gust SpeedMPH,PrecipitationIn,Events,Conditions,WindDirDegrees,DateUTC
12:53 AM,61.0,53.1,75,30.18,10.0,NE,3.5,-,N/A,,Clear,50,2013-01-19 05:53:00
1:53 AM,63.0,55.0,75,30.16,10.0,Calm,Calm,-,N/A,,Overcast,0,2013-01-19 06:53:00
2:53 AM,63.0,55.0,75,30.15,10.0,North,3.5,-,N/A,,Overcast,350,2013-01-19 07:53:00
3:53 AM,64.0,54.0,70,30.14,10.0,NW,3.5,-,N/A,,Overcast,320,2013-01-19 08:53:00
4:53 AM,64.0,55.9,75,30.15,10.0,Calm,Calm,-,N/A,,Overcast,0,2013-01-19 09:53:00
5:53 AM,64.9,55.0,70,30.16,10.0,WNW,4.6,-,N/A,,Overcast,300,2013-01-19 10:53:00
6:01 AM,64.4,55.4,73,30.16,10.0,WNW,4.6,-,N/A,,Overcast,290,2013-01-19 11:01:00
6:53 AM,64.9,55.0,70,30.17,10.0,Calm,Calm,-,N/A,,Overcast,0,2013-01-19 11:53:00
7:53 AM,66.0,55.9,70,30.18,10.0,NNW,3.5,-,N/A,,Overcast,330,2013-01-19 12:53:00
8:53 AM,69.1,57.0,65,30.19,10.0,North,4.6,-,N/A,,Overcast,360,2013-01-19 13:53:00
9:53 AM,70.0,57.0,63,30.22,10.0,NNE,4.6,-,N/A,,Overcast,30,2013-01-19 14:53:00
10:53 AM,73.0,55.0,53,30.21,10.0,Variable,3.5,-,N/A,,Overcast,0,2013-01-19 15:53:00
11:53 AM,71.1,57.0,61,30.19,10.0,NNE,3.5,-,N/A,,Overcast,30,2013-01-19 16:53:00
12:53 PM,73.0,57.9,59,30.15,10.0,North,4.6,-,N/A,,Overcast,360,2013-01-19 17:53:00
1:53 PM,73.0,55.9,55,30.12,10.0,NE,4.6,-,N/A,,Mostly Cloudy,40,2013-01-19 18:53:00
2:53 PM,73.0,59.0,61,30.11,10.0,NNE,6.9,-,N/A,,Mostly Cloudy,30,2013-01-19 19:53:00
3:53 PM,72.0,61.0,68,30.11,10.0,NNE,6.9,-,N/A,,Mostly Cloudy,30,2013-01-19 20:53:00
4:53 PM,72.0,61.0,68,30.10,10.0,NNE,4.6,-,N/A,,Mostly Cloudy,30,2013-01-19 21:53:00
5:53 PM,71.1,61.0,70,30.11,10.0,NNE,5.8,-,N/A,,Mostly Cloudy,30,2013-01-19 22:53:00
6:53 PM,71.1,60.1,68,30.12,10.0,NNE,4.6,-,N/A,,Mostly Cloudy,30,2013-01-19 23:53:00
7:53 PM,71.1,61.0,70,30.13,10.0,NNE,3.5,-,N/A,,Overcast,30,2013-01-20 00:53:00
8:53 PM,71.1,61.0,70,30.14,10.0,Calm,Calm,-,N/A,,Overcast,0,2013-01-20 01:53:00
9:53 PM,70.0,62.1,76,30.14,10.0,NW,3.5,-,N/A,,Overcast,310,2013-01-20 02:53:00
10:53 PM,71.1,63.0,75,30.13,10.0,NNW,3.5,-,N/A,,Overcast,340,2013-01-20 03:53:00
11:53 PM,70.0,64.0,81,30.12,10.0,Calm,Calm,-,N/A,,Overcast,0,2013-01-20 04:53:00